sensor_id;sensor_type;location;lat;lon;timestamp;pressure;altitude;pressure_sealevel;temperature;humidity
45939;BME280;31650;48.818;9.116;2023-03-21T00:09:48;98188.97;;;8.03;100.00
45939;BME280;31650;48.818;9.116;2023-03-21T00:24:49;98185.75;;;7.93;100.00
45939;BME280;31650;48.818;9.116;2023-03-21T00:39:51;98170.31;;;7.87;100.00
45939;BME280;31650;48.818;9.116;2023-03-21T00:54:51;98148.03;;;7.85;100.00
45939;BME280;31650;48.818;9.116;2023-03-21T01:09:51;98147.03;;;7.64;100.00
45939;BME280;31650;48.818;9.116;2023-03-21T01:24:51;98146.50;;;7.47;100.00
45939;BME280;31650;48.818;9.116;2023-03-21T01:39:51;98139.13;;;7.63;100.00
45939;BME280;31650;48.818;9.116;2023-03-21T01:54:52;98127.13;;;7.72;100.00
45939;BME280;31650;48.818;9.116;2023-03-21T02:09:54;98108.38;;;7.71;100.00
45939;BME280;31650;48.818;9.116;2023-03-21T02:40:12;98093.88;;;7.50;100.00
45939;BME280;31650;48.818;9.116;2023-03-21T02:55:24;98094.81;;;7.36;100.00
45939;BME280;31650;48.818;9.116;2023-03-21T03:25:46;98093.03;;;7.21;100.00
45939;BME280;31650;48.818;9.116;2023-03-21T03:40:50;98081.69;;;7.33;100.00
45939;BME280;31650;48.818;9.116;2023-03-21T03:55:53;98075.53;;;7.17;100.00
45939;BME280;31650;48.818;9.116;2023-03-21T04:10:54;98070.41;;;7.01;100.00
45939;BME280;31650;48.818;9.116;2023-03-21T04:25:55;98073.19;;;6.43;100.00
45939;BME280;31650;48.818;9.116;2023-03-21T04:40:58;98075.69;;;6.08;100.00
45939;BME280;31650;48.818;9.116;2023-03-21T04:55:58;98077.16;;;6.11;100.00
45939;BME280;31650;48.818;9.116;2023-03-21T05:10:59;98068.41;;;6.24;100.00
45939;BME280;31650;48.818;9.116;2023-03-21T05:25:59;98078.47;;;6.15;100.00
45939;BME280;31650;48.818;9.116;2023-03-21T05:41:00;98075.69;;;5.93;100.00
45939;BME280;31650;48.818;9.116;2023-03-21T05:56:00;98079.41;;;6.44;100.00
45939;BME280;31650;48.818;9.116;2023-03-21T06:11:00;98085.16;;;6.55;100.00
45939;BME280;31650;48.818;9.116;2023-03-21T06:26:01;98081.22;;;6.36;100.00
45939;BME280;31650;48.818;9.116;2023-03-21T06:41:01;98077.94;;;6.41;100.00
45939;BME280;31650;48.818;9.116;2023-03-21T06:56:03;98065.53;;;6.90;100.00
45939;BME280;31650;48.818;9.116;2023-03-21T07:11:04;98043.19;;;9.22;100.00
45939;BME280;31650;48.818;9.116;2023-03-21T07:26:04;98009.53;;;11.09;85.30
45939;BME280;31650;48.818;9.116;2023-03-21T07:41:04;98012.94;;;11.48;81.20
45939;BME280;31650;48.818;9.116;2023-03-21T07:56:05;98015.00;;;13.22;67.49
45939;BME280;31650;48.818;9.116;2023-03-21T08:11:06;98010.19;;;13.48;64.04
45939;BME280;31650;48.818;9.116;2023-03-21T08:26:06;98003.44;;;14.15;59.30
45939;BME280;31650;48.818;9.116;2023-03-21T08:41:06;97987.25;;;15.94;56.87
45939;BME280;31650;48.818;9.116;2023-03-21T08:56:07;97980.41;;;15.02;53.96
45939;BME280;31650;48.818;9.116;2023-03-21T09:11:08;97970.22;;;15.70;49.88
45939;BME280;31650;48.818;9.116;2023-03-21T09:26:08;97971.19;;;16.52;49.14
45939;BME280;31650;48.818;9.116;2023-03-21T09:56:16;97963.25;;;17.47;46.38
45939;BME280;31650;48.818;9.116;2023-03-21T10:11:23;97941.94;;;17.75;45.55
45939;BME280;31650;48.818;9.116;2023-03-21T10:26:24;97932.31;;;18.35;43.39
45939;BME280;31650;48.818;9.116;2023-03-21T10:41:27;97917.56;;;17.83;44.11
45939;BME280;31650;48.818;9.116;2023-03-21T10:56:28;97916.63;;;19.53;42.08
45939;BME280;31650;48.818;9.116;2023-03-21T11:26:38;97908.88;;;17.12;46.07
45939;BME280;31650;48.818;9.116;2023-03-21T11:41:42;97899.72;;;16.69;47.25
45939;BME280;31650;48.818;9.116;2023-03-21T11:56:47;97869.78;;;16.94;46.15
45939;BME280;31650;48.818;9.116;2023-03-21T12:27:10;97834.44;;;17.08;46.11
45939;BME280;31650;48.818;9.116;2023-03-21T12:42:21;97813.50;;;17.55;41.91
45939;BME280;31650;48.818;9.116;2023-03-21T12:57:26;97810.38;;;18.14;39.18
45939;BME280;31650;48.818;9.116;2023-03-21T13:27:32;97793.59;;;18.00;41.61
45939;BME280;31650;48.818;9.116;2023-03-21T13:42:33;97781.47;;;17.18;48.36
45939;BME280;31650;48.818;9.116;2023-03-21T14:12:36;97738.00;;;17.04;50.81
45939;BME280;31650;48.818;9.116;2023-03-21T14:27:36;97737.00;;;17.21;51.63
45939;BME280;31650;48.818;9.116;2023-03-21T14:42:37;97733.59;;;16.51;50.80
45939;BME280;31650;48.818;9.116;2023-03-21T14:57:37;97733.25;;;16.42;51.62
45939;BME280;31650;48.818;9.116;2023-03-21T15:12:47;97724.88;;;15.89;55.23
45939;BME280;31650;48.818;9.116;2023-03-21T15:27:48;97728.34;;;15.80;56.37
45939;BME280;31650;48.818;9.116;2023-03-21T15:42:50;97739.53;;;15.02;59.13
45939;BME280;31650;48.818;9.116;2023-03-21T15:57:51;97729.00;;;14.72;61.20
45939;BME280;31650;48.818;9.116;2023-03-21T16:12:53;97732.09;;;14.41;62.73
45939;BME280;31650;48.818;9.116;2023-03-21T16:27:53;97737.00;;;14.05;62.97
45939;BME280;31650;48.818;9.116;2023-03-21T16:42:53;97731.22;;;13.56;66.93
45939;BME280;31650;48.818;9.116;2023-03-21T16:57:53;97744.75;;;13.22;67.38
45939;BME280;31650;48.818;9.116;2023-03-21T17:12:54;97750.06;;;12.89;69.76
45939;BME280;31650;48.818;9.116;2023-03-21T17:27:54;97755.34;;;12.43;70.06
45939;BME280;31650;48.818;9.116;2023-03-21T17:42:55;97759.47;;;11.99;73.18
45939;BME280;31650;48.818;9.116;2023-03-21T17:57:55;97759.16;;;11.77;76.31
45939;BME280;31650;48.818;9.116;2023-03-21T18:12:56;97763.06;;;11.69;81.50
45939;BME280;31650;48.818;9.116;2023-03-21T18:27:57;97771.75;;;11.47;96.45
45939;BME280;31650;48.818;9.116;2023-03-21T18:42:58;97753.25;;;11.38;93.95
45939;BME280;31650;48.818;9.116;2023-03-21T18:57:58;97791.47;;;11.43;94.41
45939;BME280;31650;48.818;9.116;2023-03-21T19:12:58;97770.75;;;11.42;92.66
45939;BME280;31650;48.818;9.116;2023-03-21T19:27:58;97781.47;;;11.55;93.95
45939;BME280;31650;48.818;9.116;2023-03-21T19:42:59;97784.56;;;11.10;100.00
45939;BME280;31650;48.818;9.116;2023-03-21T19:57:59;97757.38;;;10.92;100.00
45939;BME280;31650;48.818;9.116;2023-03-21T20:13:00;97755.34;;;10.87;100.00
45939;BME280;31650;48.818;9.116;2023-03-21T20:28:00;97766.97;;;10.57;100.00
45939;BME280;31650;48.818;9.116;2023-03-21T20:43:00;97781.69;;;9.99;100.00
45939;BME280;31650;48.818;9.116;2023-03-21T20:58:03;97777.75;;;10.45;100.00
45939;BME280;31650;48.818;9.116;2023-03-21T21:13:04;97794.97;;;10.08;100.00
45939;BME280;31650;48.818;9.116;2023-03-21T21:28:06;97782.63;;;9.87;100.00
45939;BME280;31650;48.818;9.116;2023-03-21T21:43:08;97770.56;;;9.76;100.00
45939;BME280;31650;48.818;9.116;2023-03-21T21:58:09;97772.94;;;9.34;100.00
45939;BME280;31650;48.818;9.116;2023-03-21T22:13:12;97775.94;;;9.19;100.00
45939;BME280;31650;48.818;9.116;2023-03-21T22:28:12;97778.19;;;9.29;100.00
45939;BME280;31650;48.818;9.116;2023-03-21T22:43:13;97786.41;;;9.09;100.00
45939;BME280;31650;48.818;9.116;2023-03-21T22:58:13;97801.91;;;8.88;100.00
45939;BME280;31650;48.818;9.116;2023-03-21T23:13:14;97815.34;;;8.23;100.00
45939;BME280;31650;48.818;9.116;2023-03-21T23:28:14;97817.38;;;7.48;100.00
45939;BME280;31650;48.818;9.116;2023-03-21T23:43:15;97827.06;;;7.29;100.00
45939;BME280;31650;48.818;9.116;2023-03-21T23:58:15;97807.38;;;7.62;100.00
